Blacon, United Kingdom
Current Conditions -  °F | °C
As of 8:50 PM on Thursday 18 Dec 2014 (Local Time) from EGNR Reporting Station
Light Rain Light Rain  
Wind Chill: 57°   Ceiling: Unl
Heat Index: 57°   Visibility: 6mi
Dew Point: 52°   Wind: 22mph
Humidity: 82%   Direction: 250°WSW
Pressure: 29.62"   Gusts: NA
Location:  53.21°N, 2.93°W
Report Text: EGNR 182050Z 25019KT 9999 -RA FEW036 14/11 Q1003
Loading
Personal Weather Stations






























Interactive Weather Map New forecast layout! Learn more

10-Day Weather Forecast

Advertisements
Track Severe Weather on mobile